tititudorancea.com
Station Historical Data
Daily Summary for February 18, 2019 Units:  Metric    English   Both
« Previous Day
Next Day »
Daily Weekly Monthly Yearly Custom
  High: Low: Average:
Temperature: -17.8 °C 11.4 °C 19.7 °C
Dew Point: -17.8 °C 7.1 °C 10.8 °C
Humidity: Humidity % 36 % 59 %
Wind Speed: 0 km/h 0 km/h 13.8 km/h
Wind Gust: 0 km/h - -
Wind:- - SSW
Pressure: 0 hPa 1002.9 hPa -
Precipitation: 0 mm    
Historical Graphs
 
 
Ararat weather Find more about Weather in Ararat, AU


 



 


Tabular Data for February 18, 2019
Time Temperature Dew Point Pressure Wind Wind Speed Wind Gust Humidity Rainfall Rate (Hourly)
-17.8 °C -17.8 °C 0 hPa Calm     Humidity % 0 mm
00:04 18.1 °C 12.1 °C 1007.7 hPa SE 9.7 km/h 8.5 km/h 68 % 0 mm
00:09 18 °C 12 °C 1007.7 hPa SE 11.1 km/h 6.9 km/h 68 % 0 mm
00:14 18 °C 12.2 °C 1007.7 hPa SE 7.4 km/h 5.6 km/h 69 % 0 mm
00:19 18 °C 12.2 °C 1007.3 hPa SE 9.7 km/h 8.5 km/h 69 % 0 mm
00:24 18 °C 12.4 °C 1007.3 hPa SE 9.3 km/h 3.5 km/h 70 % 0 mm
00:29 18 °C 12.4 °C 1007 hPa SE 9.3 km/h 5.6 km/h 70 % 0 mm
00:34 17.9 °C 12.4 °C 1007 hPa SE 1.9 km/h   70 % 0 mm
00:39 17.9 °C 12.3 °C 1007 hPa SE 5.6 km/h 3.2 km/h 70 % 0 mm
00:44 17.9 °C 12.3 °C 1006.7 hPa SE 3.7 km/h 1.6 km/h 70 % 0 mm
00:49 17.9 °C 12.3 °C 1007 hPa SE 1.9 km/h   70 % 0 mm
00:54 17.9 °C 12.3 °C 1007 hPa Calm     70 % 0 mm
00:59 17.9 °C 12.3 °C 1006.7 hPa Calm     70 % 0 mm
01:04 17.9 °C 12.3 °C 1006.7 hPa Calm     70 % 0 mm
01:09 17.8 °C 12.3 °C 1006.7 hPa Calm     70 % 0 mm
01:14 17.8 °C 12.5 °C 1006.3 hPa Calm     71 % 0 mm
01:19 17.7 °C 12.4 °C 1006 hPa SE 1.9 km/h   71 % 0 mm
01:24 17.7 °C 12.4 °C 1006.3 hPa SE 6.4 km/h 3.1 km/h 71 % 0 mm
01:29 17.8 °C 12.4 °C 1006 hPa SE 3.7 km/h 2.9 km/h 71 % 0 mm
01:34 17.9 °C 12.6 °C 1006 hPa SE 7.4 km/h 4.3 km/h 71 % 0 mm
01:39 18.1 °C 12.6 °C 1006 hPa SE 7.4 km/h 5.3 km/h 70 % 0 mm
01:44 18.2 °C 12.6 °C 1005.6 hPa SE 3.7 km/h 2.4 km/h 70 % 0 mm
01:49 18.2 °C 12.6 °C 1005.6 hPa SE 3.7 km/h 2.3 km/h 70 % 0 mm
01:54 18.2 °C 12.4 °C 1005.6 hPa SE 5.6 km/h 2.3 km/h 69 % 0 mm
01:59 18.3 °C 12.5 °C 1005.3 hPa SE 6.4 km/h 2.9 km/h 69 % 0 mm
02:04 18.3 °C 12.6 °C 1005.3 hPa SE 5.6 km/h 1.8 km/h 69 % 0 mm
02:05 18.1 °C 12.1 °C 1007.7 hPa South 8 km/h 16.1 km/h 68 % 0 mm
02:09 18.4 °C 12.6 °C 1005 hPa SE 8 km/h 6.4 km/h 69 % 0 mm
02:10 18.1 °C 12.1 °C 1007.7 hPa SE 1.6 km/h 12.9 km/h 68 % 0 mm
02:14 18.4 °C 12.4 °C 1004.6 hPa SE 7.4 km/h 5.1 km/h 68 % 0 mm
02:15 18 °C 12.2 °C 1007.7 hPa SE 4.8 km/h 11.3 km/h 69 % 0 mm
02:19 18.6 °C 12.3 °C 1004.6 hPa SE 11.1 km/h 8.2 km/h 67 % 0 mm
02:20 18 °C 12.2 °C 1007.3 hPa SE 1.6 km/h 9.7 km/h 69 % 0 mm
02:24 18.8 °C 12.3 °C 1004.6 hPa ESE 7.4 km/h 6.1 km/h 66 % 0 mm
02:25 18 °C 12.2 °C 1007.3 hPa SE 8 km/h 11.3 km/h 69 % 0 mm
02:29 18.9 °C 12.4 °C 1004.6 hPa ESE 9.7 km/h 5.3 km/h 66 % 0 mm
02:30 18 °C 12.4 °C 1007.3 hPa SE 8 km/h 9.7 km/h 70 % 0 mm
02:34 19 °C 12.3 °C 1004.3 hPa ESE 7.4 km/h 6 km/h 65 % 0 mm
02:35 17.9 °C 12.4 °C 1007 hPa SE 3.2 km/h 9.7 km/h 70 % 0 mm
02:39 19 °C 12.3 °C 1004.3 hPa ESE 8 km/h 7.9 km/h 65 % 0 mm
02:40 17.9 °C 12.4 °C 1007 hPa SE 1.6 km/h 3.2 km/h 70 % 0 mm
02:44 19.1 °C 12.4 °C 1004.3 hPa ESE 11.3 km/h 8.5 km/h 65 % 0 mm
02:45 17.9 °C 12.3 °C 1007 hPa SE 3.2 km/h 6.4 km/h 70 % 0 mm
02:49 19.3 °C 12.3 °C 1003.6 hPa ESE 11.1 km/h 9 km/h 64 % 0 mm
02:50 17.9 °C 12.3 °C 1006.7 hPa SE 3.2 km/h 6.4 km/h 70 % 0 mm
02:54 19.4 °C 12.2 °C 1003.6 hPa ESE 7.4 km/h 4.2 km/h 63 % 0 mm
02:55 17.9 °C 12.3 °C 1007 hPa Calm   1.6 km/h 70 % 0 mm
02:59 19.5 °C 12 °C 1003.6 hPa ESE 5.6 km/h 4.7 km/h 62 % 0 mm
03:00 17.9 °C 12.3 °C 1006.7 hPa Calm   1.6 km/h 70 % 0 mm
03:04 19.6 °C 12.1 °C 1003.9 hPa ESE 7.4 km/h 3.2 km/h 62 % 0 mm
03:05 17.9 °C 12.3 °C 1006.7 hPa Calm     70 % 0 mm
03:09 19.7 °C 12 °C 1003.6 hPa ENE 18.5 km/h 3.5 km/h 61 % 0 mm
03:10 17.9 °C 12.3 °C 1006.7 hPa Calm     70 % 0 mm
03:14 20 °C 11.7 °C 1003.6 hPa ENE 7.4 km/h 5.8 km/h 59 % 0 mm
03:15 17.8 °C 12.3 °C 1006.3 hPa Calm     70 % 0 mm
03:19 20.8 °C 11.4 °C 1003.6 hPa NW 13 km/h 8.4 km/h 55 % 0 mm
03:20 17.8 °C 12.4 °C 1006.3 hPa Calm     71 % 0 mm
03:24 21.7 °C 11.4 °C 1003.3 hPa NW 9.3 km/h 5.5 km/h 52 % 0 mm
03:25 17.7 °C 12.4 °C 1006 hPa SE 3.2 km/h 6.4 km/h 71 % 0 mm
03:29 22.4 °C 10.6 °C 1002.9 hPa West 25.7 km/h 16.9 km/h 47 % 0 mm
03:30 17.8 °C 12.4 °C 1006.3 hPa SE 8 km/h 9.7 km/h 71 % 0 mm
03:34 24.9 °C 9.6 °C 1002.9 hPa West 35.2 km/h 25.9 km/h 38 % 0 mm
03:35 17.8 °C 12.5 °C 1006 hPa SE 1.6 km/h 8 km/h 71 % 0 mm
03:38 25.7 °C 9.5 °C 1002.9 hPa NW 22.2 km/h 14.8 km/h 36 % 0 mm
03:40 17.9 °C 12.6 °C 1006 hPa SE 4.8 km/h 8 km/h 71 % 0 mm
03:44 25.7 °C 10.3 °C 1002.9 hPa North 20.4 km/h 9.7 km/h 38 % 0 mm
03:45 18.1 °C 12.6 °C 1006 hPa SE 3.2 km/h 8 km/h 70 % 0 mm
03:49 24.6 °C 10.8 °C 1002.9 hPa North 11.1 km/h 9.2 km/h 42 % 0 mm
03:50 18.2 °C 12.6 °C 1005.6 hPa SE 3.2 km/h 8 km/h 70 % 0 mm
03:54 23.8 °C 11.1 °C 1002.9 hPa North 5.6 km/h 5 km/h 45 % 0 mm
03:55 18.2 °C 12.7 °C 1005.6 hPa SE 4.8 km/h 8 km/h 70 % 0 mm
03:59 23.2 °C 10.9 °C 1002.9 hPa North 5.6 km/h 4.2 km/h 46 % 0 mm
04:00 18.2 °C 12.4 °C 1005.6 hPa SE 3.2 km/h 8 km/h 69 % 0 mm
04:04 22.6 °C 11.3 °C 1002.9 hPa North 9.3 km/h 6.3 km/h 49 % 0 mm
04:05 18.3 °C 12.5 °C 1005.3 hPa SE 4.8 km/h 8 km/h 69 % 0 mm
04:09 22.2 °C 11.3 °C 1002.9 hPa North 11.3 km/h 6.3 km/h 50 % 0 mm
04:10 18.3 °C 12.6 °C 1005.3 hPa SE 3.2 km/h 8 km/h 69 % 0 mm
04:14 21.9 °C 11.3 °C 1002.9 hPa North 9.3 km/h 4.2 km/h 51 % 0 mm
04:15 18.4 °C 12.7 °C 1005 hPa SE 3.2 km/h 9.7 km/h 69 % 0 mm
04:19 21.7 °C 11.4 °C 1003.3 hPa North 7.4 km/h 4.7 km/h 52 % 0 mm
04:20 18.5 °C 12.5 °C 1004.6 hPa SE 8 km/h 11.3 km/h 68 % 0 mm
04:24 21.6 °C 11.3 °C 1002.9 hPa North 9.3 km/h 5.1 km/h 52 % 0 mm
04:25 18.7 °C 12.4 °C 1004.6 hPa SE 4.8 km/h 11.3 km/h 67 % 0 mm
04:29 21.6 °C 11.3 °C 1002.9 hPa North 6.4 km/h 4.3 km/h 52 % 0 mm
04:30 18.9 °C 12.4 °C 1004.6 hPa SE 4.8 km/h 11.3 km/h 66 % 0 mm
04:34 21.7 °C 11.4 °C 1002.9 hPa NNW 9.3 km/h 4 km/h 52 % 0 mm
04:35 18.9 °C 12.2 °C 1004.3 hPa ESE 3.2 km/h 11.3 km/h 65 % 0 mm
04:39 21.7 °C 11.4 °C 1002.9 hPa NNW 13 km/h 6.6 km/h 52 % 0 mm
04:40 19 °C 12.3 °C 1004.3 hPa ESE 3.2 km/h 9.7 km/h 65 % 0 mm
04:44 21.7 °C 11.1 °C 1002.9 hPa NNW 14.8 km/h 6.1 km/h 51 % 0 mm
04:45 19.1 °C 12.3 °C 1004.3 hPa ESE 11.3 km/h 12.9 km/h 65 % 0 mm
04:49 21.7 °C 11.1 °C 1002.9 hPa NNW 9.3 km/h 6.9 km/h 51 % 0 mm
04:50 19.2 °C 12.4 °C 1003.9 hPa ESE 8 km/h 11.3 km/h 65 % 0 mm
04:54 21.8 °C 11.2 °C 1002.9 hPa NNW 13 km/h 11.7 km/h 51 % 0 mm
04:55 19.3 °C 12.1 °C 1003.6 hPa ESE 8 km/h 12.9 km/h 63 % 0 mm
04:59 21.8 °C 11.2 °C 1002.9 hPa NNW 11.1 km/h 9.5 km/h 51 % 0 mm
05:00 19.4 °C 12.2 °C 1003.6 hPa ESE 3.2 km/h 9.7 km/h 63 % 0 mm
05:04 21.8 °C 11.2 °C 1002.9 hPa NNW 11.1 km/h 7.9 km/h 51 % 0 mm
05:05 19.6 °C 12.1 °C 1003.9 hPa ESE 1.6 km/h 8 km/h 62 % 0 mm
05:09 21.8 °C 11.2 °C 1002.9 hPa NNW 13 km/h 7.2 km/h 51 % 0 mm
05:10 19.7 °C 12.2 °C 1003.9 hPa ESE 1.6 km/h 8 km/h 62 % 0 mm
05:14 21.9 °C 10.7 °C 1002.9 hPa NW 14.5 km/h 8.5 km/h 49 % 0 mm
05:15 19.8 °C 11.8 °C 1003.6 hPa East 3.2 km/h 20.9 km/h 60 % 0 mm
05:19 22.4 °C 10.2 °C 1002.9 hPa WNW 14.5 km/h 10.8 km/h 46 % 0 mm
05:20 20.1 °C 11.8 °C 1003.6 hPa ENE 4.8 km/h 11.3 km/h 59 % 0 mm
05:24 23.4 °C 10.1 °C 1003.3 hPa WNW 16.7 km/h 10 km/h 43 % 0 mm
05:25 21.1 °C 11.4 °C 1003.6 hPa NNE 8 km/h 20.9 km/h 54 % 0 mm
05:29 23.8 °C 9.8 °C 1003.6 hPa WNW 16.7 km/h 11.3 km/h 41 % 0 mm
05:30 21.8 °C 11.2 °C 1003.3 hPa NW 4.8 km/h 12.9 km/h 51 % 0 mm
05:34 23.8 °C 10.1 °C 1003.6 hPa West 16.7 km/h 9.2 km/h 42 % 0 mm
05:35 23.1 °C 10.2 °C 1003.3 hPa WNW 20.9 km/h 30.6 km/h 44 % 0 mm
05:39 23.4 °C 10.4 °C 1003.9 hPa West 6.4 km/h 5.8 km/h 44 % 0 mm
05:40 25.3 °C 9.6 °C 1002.9 hPa West 20.9 km/h 35.4 km/h 37 % 0 mm
05:44 22.4 °C 11.2 °C 1003.6 hPa West 11.1 km/h 8.4 km/h 49 % 0 mm
05:45 25.8 °C 9.6 °C 1003.3 hPa WNW 22.5 km/h 33.8 km/h 36 % 0 mm
05:49 21.5 °C 11.2 °C 1003.9 hPa West 11.1 km/h 6.4 km/h 52 % 0 mm
05:54 21 °C 11.3 °C 1003.9 hPa West 3.2 km/h 1.6 km/h 54 % 0 mm
05:55 24.4 °C 11 °C 1002.9 hPa NNW 4.8 km/h 25.7 km/h 43 % 0 mm
05:59 20.6 °C 11.4 °C 1003.9 hPa West 7.4 km/h 6.4 km/h 56 % 0 mm
06:00 23.6 °C 11 °C 1002.9 hPa North 3.2 km/h 11.3 km/h 45 % 0 mm
06:04 20.1 °C 11.6 °C 1003.9 hPa West 5.6 km/h 2.3 km/h 58 % 0 mm
06:05 23 °C 11.1 °C 1002.9 hPa North 8 km/h 11.3 km/h 47 % 0 mm
06:09 19.7 °C 11.7 °C 1003.6 hPa WSW 11.1 km/h 6.4 km/h 60 % 0 mm
06:10 22.4 °C 11.2 °C 1002.9 hPa North 4.8 km/h 11.3 km/h 49 % 0 mm
06:14 19.2 °C 11.8 °C 1003.6 hPa SW 16.7 km/h 8.9 km/h 62 % 0 mm
06:15 22.1 °C 11.5 °C 1002.9 hPa North 4.8 km/h 11.3 km/h 51 % 0 mm
06:19 18.9 °C 11.9 °C 1003.6 hPa SW 14.8 km/h 9.2 km/h 64 % 0 mm
06:20 21.9 °C 11.6 °C 1003.3 hPa North 4.8 km/h 9.7 km/h 52 % 0 mm
06:24 18.6 °C 11.9 °C 1003.6 hPa SSW 16.7 km/h 8.4 km/h 65 % 0 mm
06:25 21.7 °C 11.4 °C 1003.3 hPa North 4.8 km/h 12.9 km/h 52 % 0 mm
06:29 18.4 °C 12 °C 1003.6 hPa SSW 12.9 km/h 8 km/h 66 % 0 mm
06:30 21.6 °C 11.3 °C 1003.3 hPa North 8 km/h 12.9 km/h 52 % 0 mm
06:34 18.2 °C 11.9 °C 1003.9 hPa South 14.5 km/h 9.5 km/h 67 % 0 mm
06:35 21.7 °C 11.4 °C 1002.9 hPa North 4.8 km/h 11.3 km/h 52 % 0 mm
06:39 18 °C 12 °C 1003.9 hPa South 11.1 km/h 7.2 km/h 68 % 0 mm
06:40 21.7 °C 11.4 °C 1002.9 hPa NNW 4.8 km/h 9.7 km/h 52 % 0 mm
06:44 17.8 °C 12 °C 1004.3 hPa South 14.8 km/h 7.2 km/h 69 % 0 mm
06:45 21.7 °C 11.4 °C 1002.9 hPa NNW 8 km/h 12.9 km/h 52 % 0 mm
06:49 17.6 °C 11.8 °C 1004.3 hPa South 16.7 km/h 10.9 km/h 69 % 0 mm
06:50 21.7 °C 11.1 °C 1002.9 hPa NNW 4.8 km/h 14.5 km/h 51 % 0 mm
06:54 17.4 °C 11.8 °C 1004.3 hPa SSW 18.5 km/h 11.9 km/h 70 % 0 mm
06:55 21.8 °C 11.2 °C 1002.9 hPa NNW 4.8 km/h 11.3 km/h 51 % 0 mm
06:59 17.2 °C 11.9 °C 1004.3 hPa South 11.1 km/h 10.6 km/h 71 % 0 mm
07:00 21.8 °C 11.2 °C 1002.9 hPa NNW 8 km/h 14.5 km/h 51 % 0 mm
07:04 17 °C 11.9 °C 1004.6 hPa South 16.1 km/h 11.6 km/h 72 % 0 mm
07:05 21.8 °C 11.2 °C 1002.9 hPa NNW 9.7 km/h 14.5 km/h 51 % 0 mm
07:09 16.8 °C 11.9 °C 1005 hPa South 9.3 km/h 6.1 km/h 73 % 0 mm
07:10 21.8 °C 11.2 °C 1002.9 hPa NNW 9.7 km/h 14.5 km/h 51 % 0 mm
07:14 16.6 °C 11.9 °C 1005 hPa South 14.8 km/h 12.1 km/h 74 % 0 mm
07:15 21.8 °C 11.2 °C 1002.9 hPa NNW 4.8 km/h 12.9 km/h 51 % 0 mm
07:19 16.5 °C 12.1 °C 1005 hPa South 5.6 km/h 3.9 km/h 75 % 0 mm
07:20 22.1 °C 10.8 °C 1002.9 hPa NNW 4.8 km/h 16.1 km/h 49 % 0 mm
07:24 16.3 °C 11.9 °C 1005 hPa South 13 km/h 7.7 km/h 75 % 0 mm
07:25 22.6 °C 10.1 °C 1002.9 hPa NW 11.3 km/h 17.7 km/h 45 % 0 mm
07:29 16.2 °C 12.1 °C 1005.3 hPa South 20.9 km/h 17.5 km/h 77 % 0 mm
07:30 23.5 °C 9.8 °C 1003.3 hPa WNW 12.9 km/h 20.9 km/h 42 % 0 mm
07:34 15.9 °C 12.4 °C 1005.3 hPa South 18.5 km/h 13.2 km/h 80 % 0 mm
07:35 23.9 °C 9.8 °C 1003.6 hPa WNW 11.3 km/h 22.5 km/h 41 % 0 mm
07:39 15.6 °C 12.6 °C 1005.6 hPa SSW 18.5 km/h 15.1 km/h 82 % 0 mm
07:40 23.7 °C 10.1 °C 1003.6 hPa WNW 8 km/h 17.7 km/h 42 % 0 mm
07:44 15.3 °C 12.6 °C 1005.6 hPa South 22.2 km/h 16.4 km/h 84 % 0 mm
07:45 23.2 °C 10.9 °C 1003.9 hPa West 8 km/h 12.9 km/h 46 % 0 mm
07:49 15.1 °C 12.6 °C 1005.6 hPa SSE 18.5 km/h 12.7 km/h 85 % 0 mm
07:50 22.1 °C 10.9 °C 1003.6 hPa West 4.8 km/h 12.9 km/h 49 % 0 mm
07:54 15 °C 12.7 °C 1005.6 hPa South 20.4 km/h 13.5 km/h 86 % 0 mm
07:55 21.3 °C 11.3 °C 1003.6 hPa West 8 km/h 12.9 km/h 53 % 0 mm
07:59 15 °C 12.8 °C 1005.6 hPa SSE 18.5 km/h 7.6 km/h 87 % 0 mm
08:00 20.9 °C 11.3 °C 1003.9 hPa West 3.2 km/h 8 km/h 54 % 0 mm
08:04 15 °C 12.8 °C 1005.6 hPa SSE 13 km/h 8.9 km/h 87 % 0 mm
08:05 20.4 °C 11.6 °C 1003.9 hPa West 8 km/h 12.9 km/h 57 % 0 mm
08:09 15.1 °C 13.1 °C 1006 hPa SSW 18.5 km/h 12.6 km/h 88 % 0 mm
08:10 20 °C 11.7 °C 1003.9 hPa West 8 km/h 11.3 km/h 59 % 0 mm
08:14 15 °C 13 °C 1006 hPa South 14.8 km/h 10.1 km/h 88 % 0 mm
08:15 19.6 °C 11.8 °C 1003.6 hPa WSW 1.6 km/h 11.3 km/h 61 % 0 mm
08:19 15 °C 13 °C 1006 hPa North 9.7 km/h 6.1 km/h 88 % 0 mm
08:20 19.1 °C 11.9 °C 1003.6 hPa WSW 9.7 km/h 16.1 km/h 63 % 0 mm
08:24 15.1 °C 13.1 °C 1006 hPa South 14.8 km/h 4.8 km/h 88 % 0 mm
08:25 18.8 °C 11.9 °C 1003.6 hPa SW 4.8 km/h 14.5 km/h 64 % 0 mm
08:29 15.2 °C 13.4 °C 1006.3 hPa South 9.7 km/h 3.7 km/h 89 % 0 mm
08:30 18.6 °C 12.1 °C 1003.6 hPa SW 8 km/h 16.1 km/h 66 % 0 mm
08:34 15.3 °C 13.3 °C 1006.7 hPa South 9.3 km/h 3.5 km/h 88 % 0 mm
08:35 18.3 °C 12.1 °C 1003.6 hPa SSW 4.8 km/h 19.3 km/h 67 % 0 mm
08:39 15.3 °C 13.3 °C 1006.7 hPa South 9.7 km/h 3.7 km/h 88 % 0 mm
08:40 18.1 °C 11.9 °C 1003.9 hPa SSW 11.3 km/h 16.1 km/h 67 % 0 mm
08:42 15.4 °C 13.4 °C 1006.3 hPa North 13 km/h 9.8 km/h 88 % 0 mm
08:45 17.9 °C 11.9 °C 1003.9 hPa South 9.7 km/h 12.9 km/h 68 % 0 mm
08:50 17.7 °C 11.9 °C 1004.3 hPa South 9.7 km/h 19.3 km/h 69 % 0 mm
08:55 17.6 °C 11.8 °C 1004.3 hPa South 8 km/h 20.9 km/h 69 % 0 mm
09:00 17.3 °C 11.8 °C 1004.3 hPa South 9.7 km/h 20.9 km/h 70 % 0 mm
09:05 17.2 °C 11.9 °C 1004.3 hPa South 9.7 km/h 17.7 km/h 71 % 0 mm
09:10 16.9 °C 11.8 °C 1004.6 hPa South 4.8 km/h 17.7 km/h 72 % 0 mm
09:15 16.7 °C 11.8 °C 1005 hPa South 9.7 km/h 16.1 km/h 73 % 0 mm
09:20 16.6 °C 11.9 °C 1005 hPa South 4.8 km/h 14.5 km/h 74 % 0 mm
09:25 16.4 °C 12.2 °C 1005 hPa South 4.8 km/h 9.7 km/h 76 % 0 mm
09:30 16.3 °C 12.1 °C 1005 hPa South 11.3 km/h 14.5 km/h 76 % 0 mm
09:35 16.1 °C 12.3 °C 1005.3 hPa South 16.1 km/h 22.5 km/h 78 % 0 mm
09:40 15.8 °C 12.5 °C 1005.3 hPa South 19.3 km/h 29 km/h 81 % 0 mm
09:45 15.5 °C 12.4 °C 1005.6 hPa South 14.5 km/h 24.1 km/h 82 % 0 mm
09:50 15.2 °C 12.6 °C 1005.6 hPa South 9.7 km/h 25.7 km/h 84 % 0 mm
09:55 15.1 °C 12.6 °C 1005.6 hPa South 14.5 km/h 20.9 km/h 85 % 0 mm
10:00 15 °C 12.7 °C 1005.6 hPa South 9.7 km/h 20.9 km/h 86 % 0 mm
10:05 15 °C 12.8 °C 1005.6 hPa SSE 8 km/h 17.7 km/h 87 % 0 mm
10:10 15.1 °C 12.9 °C 1005.6 hPa SSE 11.3 km/h 17.7 km/h 87 % 0 mm
10:15 15 °C 13 °C 1006 hPa South 14.5 km/h 20.9 km/h 88 % 0 mm
10:20 15 °C 13 °C 1006 hPa South 9.7 km/h 14.5 km/h 88 % 0 mm
10:25 15.1 °C 13.1 °C 1006 hPa South 4.8 km/h 12.9 km/h 88 % 0 mm
10:30 15.2 °C 13.4 °C 1006 hPa South 3.2 km/h 14.5 km/h 89 % 0 mm
10:35 15.2 °C 13.4 °C 1006.3 hPa South 4.8 km/h 9.7 km/h 89 % 0 mm
10:40 15.3 °C 13.3 °C 1006.7 hPa South 4.8 km/h 11.3 km/h 88 % 0 mm
10:45 15.4 °C 13.4 °C 1006.3 hPa South 9.7 km/h 12.9 km/h 88 % 0 mm
10:50 15.4 °C 13.4 °C 1006.3 hPa South 1.6 km/h 12.9 km/h 88 % 0 mm
10:55 15.6 °C 13.6 °C 1006.3 hPa South 4.8 km/h 9.7 km/h 88 % 0 mm
11:00 15.7 °C 13.5 °C 1006.3 hPa South 9.7 km/h 14.5 km/h 87 % 0 mm
11:05 15.7 °C 13.6 °C 1006.3 hPa South 3.2 km/h 14.5 km/h 87 % 0 mm
11:10 15.8 °C 13.7 °C 1006.7 hPa South 9.7 km/h 16.1 km/h 87 % 0 mm
11:15 15.9 °C 13.6 °C 1006.7 hPa South 8 km/h 16.1 km/h 86 % 0 mm
11:20 15.9 °C 13.6 °C 1006.7 hPa South 4.8 km/h 12.9 km/h 86 % 0 mm
11:25 16 °C 13.5 °C 1007 hPa South 4.8 km/h 12.9 km/h 85 % 0 mm
11:30 16.2 °C 13.4 °C 1006.7 hPa South 9.7 km/h 12.9 km/h 84 % 0 mm
11:35 16.3 °C 13.6 °C 1007 hPa South 4.8 km/h 12.9 km/h 84 % 0 mm
11:40 16.7 °C 13.8 °C 1006.7 hPa South 9.7 km/h 16.1 km/h 83 % 0 mm
11:45 16.8 °C 13.7 °C 1006.7 hPa South 4.8 km/h 14.5 km/h 82 % 0 mm
11:50 16.9 °C 13.4 °C 1006.3 hPa South 11.3 km/h 16.1 km/h 80 % 0 mm
11:55 17 °C 13.5 °C 1006.3 hPa South 9.7 km/h 17.7 km/h 80 % 0 mm
12:00 16.9 °C 13.3 °C 1006.3 hPa South 8 km/h 14.5 km/h 79 % 0 mm
12:05 17.1 °C 13.6 °C 1006.3 hPa South 8 km/h 12.9 km/h 80 % 0 mm
12:10 17.2 °C 13.7 °C 1006 hPa South 9.7 km/h 17.7 km/h 80 % 0 mm
12:15 17.4 °C 13.6 °C 1006 hPa South 11.3 km/h 19.3 km/h 78 % 0 mm
12:20 17.4 °C 13.5 °C 1006.3 hPa SSE 9.7 km/h 19.3 km/h 78 % 0 mm
12:25 17.4 °C 13.5 °C 1006.3 hPa SSE 8 km/h 12.9 km/h 78 % 0 mm
12:30 17.4 °C 13.6 °C 1006 hPa SSE 12.9 km/h 16.1 km/h 78 % 0 mm
12:35 17.4 °C 13.6 °C 1006 hPa SSE 12.9 km/h 14.5 km/h 78 % 0 mm
12:40 17.5 °C 13.6 °C 1005.6 hPa SSE 4.8 km/h 16.1 km/h 78 % 0 mm
12:45 17.5 °C 13.4 °C 1005.6 hPa SSE 4.8 km/h 16.1 km/h 77 % 0 mm
12:50 17.6 °C 13.5 °C 1005.6 hPa SSE 9.7 km/h 17.7 km/h 77 % 0 mm
12:55 17.8 °C 13.7 °C 1005.6 hPa SSE 11.3 km/h 17.7 km/h 77 % 0 mm
13:00 18 °C 13.5 °C 1005.6 hPa SSE 11.3 km/h 16.1 km/h 75 % 0 mm
13:05 18 °C 13.7 °C 1005.3 hPa SSE 11.3 km/h 17.7 km/h 76 % 0 mm
13:10 18.1 °C 13.6 °C 1005.3 hPa SSE 11.3 km/h 16.1 km/h 75 % 0 mm
13:15 18.3 °C 13.6 °C 1005.6 hPa SSE 4.8 km/h 16.1 km/h 74 % 0 mm
13:20 18.4 °C 13.7 °C 1005.6 hPa SSE 11.3 km/h 16.1 km/h 74 % 0 mm
13:24 23.6 °C 12.2 °C 1004.3 hPa SW 13 km/h 13 km/h 49 % 0 mm
13:25 18.4 °C 13.7 °C 1005.6 hPa SSE 4.8 km/h 16.1 km/h 74 % 0 mm
13:29 23.5 °C 11.8 °C 1004.3 hPa SSW 24.1 km/h 11.4 km/h 48 % 0 mm
13:30 18.5 °C 13.8 °C 1005.6 hPa SSE 11.3 km/h 14.5 km/h 74 % 0 mm
13:34 23.4 °C 12.4 °C 1004.3 hPa South 22.2 km/h 10.6 km/h 50 % 0 mm
13:35 18.4 °C 13.5 °C 1005.6 hPa South 12.9 km/h 17.7 km/h 73 % 0 mm
13:39 23.8 °C 12.1 °C 1004.3 hPa SSW 20.4 km/h 11.9 km/h 48 % 0 mm
13:40 18.4 °C 13.5 °C 1005.6 hPa South 11.3 km/h 17.7 km/h 73 % 0 mm
13:44 23.9 °C 11.6 °C 1004.3 hPa South 31.5 km/h 23.2 km/h 46 % 0 mm
13:45 18.5 °C 13.8 °C 1005.6 hPa South 4.8 km/h 11.3 km/h 74 % 0 mm
13:49 24 °C 11.7 °C 1004.3 hPa SSW 24.1 km/h 13.7 km/h 46 % 0 mm
13:50 18.8 °C 13.9 °C 1005.6 hPa South 8 km/h 14.5 km/h 73 % 0 mm
13:54 24 °C 11.3 °C 1004.3 hPa SSW 22.5 km/h 19 km/h 45 % 0 mm
13:55 19.1 °C 13.9 °C 1005.3 hPa South 11.3 km/h 24.1 km/h 72 % 0 mm
13:59 24.3 °C 11.2 °C 1004.3 hPa South 18.5 km/h 15.9 km/h 44 % 0 mm
14:00 19.5 °C 14.3 °C 1005.3 hPa South 9.7 km/h 20.9 km/h 72 % 0 mm
14:04 24.2 °C 10.8 °C 1004.3 hPa SW 29.6 km/h 23.5 km/h 43 % 0 mm
14:05 19.9 °C 13.8 °C 1005.3 hPa South 9.7 km/h 22.5 km/h 68 % 0 mm
14:09 24.2 °C 10.8 °C 1003.9 hPa South 24.1 km/h 8.7 km/h 43 % 0 mm
14:10 20.3 °C 13.9 °C 1005.3 hPa South 11.3 km/h 16.1 km/h 67 % 0 mm
14:14 24.1 °C 10.7 °C 1003.9 hPa SSE 25.9 km/h 15.4 km/h 43 % 0 mm
14:15 20.7 °C 14.2 °C 1005.3 hPa South 4.8 km/h 16.1 km/h 66 % 0 mm
14:19 24.4 °C 11.1 °C 1004.3 hPa SW 22.2 km/h 19.3 km/h 43 % 0 mm
14:20 21.4 °C 14.3 °C 1005 hPa South 9.7 km/h 19.3 km/h 64 % 0 mm
14:24 24.3 °C 10.6 °C 1004.3 hPa SSW 25.7 km/h 18.2 km/h 42 % 0 mm
14:25 21.8 °C 13.4 °C 1005 hPa SSE 14.5 km/h 20.9 km/h 59 % 0 mm
14:29 24.3 °C 10.6 °C 1004.3 hPa SSW 20.9 km/h 21.4 km/h 42 % 0 mm
14:30 21.9 °C 13.5 °C 1005 hPa South 12.9 km/h 20.9 km/h 59 % 0 mm
14:34 24.6 °C 10.8 °C 1004.3 hPa SSW 24.1 km/h 15 km/h 42 % 0 mm
14:35 21.9 °C 13.6 °C 1004.6 hPa South 12.9 km/h 19.3 km/h 59 % 0 mm
14:39 24.4 °C 10.7 °C 1004.3 hPa SSE 24.1 km/h 16.1 km/h 42 % 0 mm
14:40 22.4 °C 13.7 °C 1004.6 hPa SSE 14.5 km/h 22.5 km/h 58 % 0 mm
14:44 24.6 °C 10.5 °C 1004.3 hPa SSW 22.5 km/h 18.3 km/h 41 % 0 mm
14:45 22.8 °C 13.3 °C 1004.6 hPa SSE 12.9 km/h 24.1 km/h 55 % 0 mm
14:49 24.4 °C 11 °C 1003.9 hPa South 25.9 km/h 15.3 km/h 43 % 0 mm
14:50 22.8 °C 13 °C 1004.6 hPa SSE 14.5 km/h 20.9 km/h 54 % 0 mm
14:54 24.4 °C 10.3 °C 1003.9 hPa SSE 24.1 km/h 13 km/h 41 % 0 mm
14:55 22.8 °C 12.7 °C 1004.6 hPa South 19.3 km/h 25.7 km/h 53 % 0 mm
14:59 24.7 °C 10.2 °C 1003.9 hPa SSW 24.1 km/h 15.4 km/h 40 % 0 mm
15:00 22.9 °C 12.8 °C 1004.3 hPa South 16.1 km/h 27.4 km/h 53 % 0 mm
15:04 24.8 °C 10.3 °C 1003.9 hPa SSW 17.7 km/h 11.7 km/h 40 % 0 mm
15:05 22.9 °C 12.6 °C 1004.3 hPa South 11.3 km/h 25.7 km/h 52 % 0 mm
15:09 24.9 °C 10.4 °C 1003.9 hPa SW 18.5 km/h 9.5 km/h 40 % 0 mm
15:10 23.1 °C 12.4 °C 1004.3 hPa South 19.3 km/h 24.1 km/h 51 % 0 mm
15:14 25.1 °C 10.2 °C 1003.9 hPa SW 24.1 km/h 18.3 km/h 39 % 0 mm
15:15 23.2 °C 12.5 °C 1004.3 hPa SSW 20.9 km/h 30.6 km/h 51 % 0 mm
15:19 24.8 °C 9.9 °C 1003.9 hPa SSW 25.7 km/h 17.2 km/h 39 % 0 mm
15:20 23.3 °C 12.3 °C 1004.3 hPa South 19.3 km/h 30.6 km/h 50 % 0 mm
15:24 24.9 °C 10.4 °C 1004.3 hPa SSW 16.7 km/h 18 km/h 40 % 0 mm
15:25 23.4 °C 12.4 °C 1003.9 hPa South 14.5 km/h 20.9 km/h 50 % 0 mm
15:29 24.7 °C 9.8 °C 1003.9 hPa SSW 25.9 km/h 14.2 km/h 39 % 0 mm
15:30 23.6 °C 12.2 °C 1004.3 hPa SSW 19.3 km/h 25.7 km/h 49 % 0 mm
15:34 24.6 °C 9.7 °C 1003.9 hPa SSW 22.2 km/h 19.3 km/h 39 % 0 mm
15:35 23.6 °C 12.2 °C 1004.3 hPa SSW 19.3 km/h 27.4 km/h 49 % 0 mm
15:39 24.4 °C 9.2 °C 1004.3 hPa SW 25.9 km/h 20 km/h 38 % 0 mm
15:40 23.6 °C 11.9 °C 1004.3 hPa SSW 16.1 km/h 32.2 km/h 48 % 0 mm
15:44 24.4 °C 9.9 °C 1004.3 hPa South 37 km/h 19.3 km/h 40 % 0 mm
15:45 23.9 °C 12.2 °C 1004.3 hPa SSW 12.9 km/h 30.6 km/h 48 % 0 mm
15:49 24.3 °C 9.5 °C 1004.3 hPa SSW 29.6 km/h 16.6 km/h 39 % 0 mm
15:50 23.9 °C 11.9 °C 1004.3 hPa South 19.3 km/h 33.8 km/h 47 % 0 mm
15:54 24.4 °C 9.9 °C 1004.3 hPa South 27.8 km/h 13.7 km/h 40 % 0 mm
15:55 24.1 °C 11.4 °C 1004.3 hPa South 19.3 km/h 27.4 km/h 45 % 0 mm
15:59 24.6 °C 10.1 °C 1004.3 hPa SSW 24.1 km/h 20.1 km/h 40 % 0 mm
16:00 24 °C 11.3 °C 1004.3 hPa SSW 20.9 km/h 29 km/h 45 % 0 mm
16:04 24.4 °C 9.9 °C 1004.3 hPa SW 29.6 km/h 22.7 km/h 40 % 0 mm
16:05 24.4 °C 11.7 °C 1004.3 hPa SSW 12.9 km/h 24.1 km/h 45 % 0 mm
16:09 24.5 °C 10 °C 1004.3 hPa SW 27.8 km/h 18 km/h 40 % 0 mm
16:10 24.1 °C 10.7 °C 1004.3 hPa SSW 19.3 km/h 32.2 km/h 43 % 0 mm
16:14 24.4 °C 9.9 °C 1004.3 hPa SW 22.2 km/h 17.4 km/h 40 % 0 mm
16:15 24.3 °C 10.6 °C 1003.9 hPa SSW 20.9 km/h 29 km/h 42 % 0 mm
16:19 24.4 °C 9.9 °C 1004.3 hPa SW 35.2 km/h 24 km/h 40 % 0 mm
16:20 24.2 °C 11.2 °C 1003.9 hPa South 14.5 km/h 29 km/h 44 % 0 mm
16:24 24.4 °C 9.9 °C 1004.3 hPa SSW 38.9 km/h 21.1 km/h 40 % 0 mm
16:25 24.4 °C 11.1 °C 1004.3 hPa SSW 19.3 km/h 30.6 km/h 43 % 0 mm
16:29 24.4 °C 10.3 °C 1004.3 hPa SW 20.9 km/h 13.7 km/h 41 % 0 mm
16:30 24.2 °C 10.8 °C 1004.3 hPa SSW 16.1 km/h 30.6 km/h 43 % 0 mm
16:34 24.4 °C 9.9 °C 1004.3 hPa South 25.9 km/h 12.4 km/h 40 % 0 mm
16:35 24.3 °C 10.6 °C 1004.3 hPa SSW 14.5 km/h 33.8 km/h 42 % 0 mm
16:39 24.4 °C 10.3 °C 1004.3 hPa South 20.4 km/h 15.9 km/h 41 % 0 mm
16:40 24.6 °C 10.4 °C 1004.3 hPa SSW 19.3 km/h 27.4 km/h 41 % 0 mm
16:44 24.3 °C 10.2 °C 1004.3 hPa SSW 22.5 km/h 14.6 km/h 41 % 0 mm
16:45 24.5 °C 10.4 °C 1004.3 hPa South 12.9 km/h 24.1 km/h 41 % 0 mm
16:49 24.3 °C 10.2 °C 1004.3 hPa SSE 18.5 km/h 11.6 km/h 41 % 0 mm
16:50 24.5 °C 10.4 °C 1003.9 hPa South 14.5 km/h 24.1 km/h 41 % 0 mm
16:54 24.5 °C 11.1 °C 1004.3 hPa South 16.7 km/h 7.6 km/h 43 % 0 mm
16:55 24.4 °C 11.1 °C 1003.9 hPa South 14.5 km/h 25.7 km/h 43 % 0 mm
16:59 24.4 °C 9.9 °C 1004.3 hPa SSW 22.2 km/h 18.3 km/h 40 % 0 mm
17:00 24.4 °C 10.3 °C 1003.9 hPa SSE 16.1 km/h 32.2 km/h 41 % 0 mm
17:04 24.2 °C 10.4 °C 1004.3 hPa SW 20.9 km/h 19.2 km/h 42 % 0 mm
17:05 24.8 °C 10.3 °C 1003.9 hPa South 16.1 km/h 24.1 km/h 40 % 0 mm
17:09 23.9 °C 10.2 °C 1004.6 hPa SSW 31.5 km/h 15.9 km/h 42 % 0 mm
17:10 24.9 °C 10.3 °C 1003.9 hPa SSW 12.9 km/h 29 km/h 40 % 0 mm
17:14 23.7 °C 10.1 °C 1004.3 hPa SSW 22.2 km/h 18.7 km/h 42 % 0 mm
17:15 25 °C 10.1 °C 1003.9 hPa SW 19.3 km/h 30.6 km/h 39 % 0 mm
17:19 23.7 °C 10 °C 1004.6 hPa SSW 18.5 km/h 14 km/h 42 % 0 mm
17:20 25.2 °C 9.8 °C 1003.9 hPa SW 20.9 km/h 35.4 km/h 38 % 0 mm
17:24 23.6 °C 9.9 °C 1004.6 hPa SSW 31.5 km/h 21.6 km/h 42 % 0 mm
17:25 24.7 °C 9.8 °C 1003.9 hPa SW 11.3 km/h 29 km/h 39 % 0 mm
17:29 23.4 °C 9.7 °C 1004.6 hPa SSW 29.6 km/h 22.2 km/h 42 % 0 mm
17:30 24.9 °C 9.7 °C 1003.9 hPa SSW 20.9 km/h 35.4 km/h 38 % 0 mm
17:34 23.3 °C 9.7 °C 1004.6 hPa SSW 25.9 km/h 21.4 km/h 42 % 0 mm
17:35 24.7 °C 10.2 °C 1003.9 hPa SSW 12.9 km/h 32.2 km/h 40 % 0 mm
17:39 23.6 °C 9.6 °C 1004.6 hPa South 25.9 km/h 16.4 km/h 41 % 0 mm
17:40 24.7 °C 9.8 °C 1004.3 hPa SSW 19.3 km/h 35.4 km/h 39 % 0 mm
17:44 23.1 °C 9.1 °C 1005 hPa South 27.8 km/h 17.9 km/h 41 % 0 mm
17:45 24.3 °C 9.5 °C 1003.9 hPa SSW 24.1 km/h 38.6 km/h 39 % 0 mm
17:49 22.9 °C 9 °C 1005 hPa South 27.8 km/h 16.3 km/h 41 % 0 mm
17:50 24.4 °C 9.9 °C 1004.3 hPa SSW 14.5 km/h 37 km/h 40 % 0 mm
17:54 22.8 °C 8.9 °C 1005 hPa South 31.5 km/h 19 km/h 41 % 0 mm
17:55 24.4 °C 9.9 °C 1004.3 hPa SSW 14.5 km/h 33.8 km/h 40 % 0 mm
17:59 22.8 °C 8.8 °C 1005 hPa SSW 29.6 km/h 17.7 km/h 41 % 0 mm
18:00 24.4 °C 9.9 °C 1004.3 hPa SW 19.3 km/h 30.6 km/h 40 % 0 mm
18:04 22.8 °C 8.9 °C 1005 hPa SSW 24.1 km/h 17.9 km/h 41 % 0 mm
18:05 24.6 °C 10.1 °C 1004.3 hPa SW 16.1 km/h 30.6 km/h 40 % 0 mm
18:09 22.6 °C 8.7 °C 1005 hPa SW 25.9 km/h 18.5 km/h 41 % 0 mm
18:10 24.3 °C 10.2 °C 1004.3 hPa SSW 19.3 km/h 30.6 km/h 41 % 0 mm
18:14 22.6 °C 8.3 °C 1005.3 hPa SSW 35.2 km/h 21.9 km/h 40 % 0 mm
18:15 24.5 °C 10 °C 1004.3 hPa SSW 20.9 km/h 30.6 km/h 40 % 0 mm
18:19 22.2 °C 8.3 °C 1005.3 hPa SSW 31.5 km/h 16.9 km/h 41 % 0 mm
18:20 24.4 °C 9.9 °C 1004.3 hPa SW 16.1 km/h 37 km/h 40 % 0 mm
18:24 22.2 °C 8.3 °C 1005.3 hPa SSW 31.5 km/h 20.3 km/h 41 % 0 mm
18:25 24.3 °C 9.9 °C 1003.9 hPa SW 24.1 km/h 35.4 km/h 40 % 0 mm
18:29 22.1 °C 8.2 °C 1005.3 hPa SSW 27.8 km/h 18.8 km/h 41 % 0 mm
18:30 24.4 °C 10.3 °C 1004.3 hPa SSW 19.3 km/h 38.6 km/h 41 % 0 mm
18:34 22.1 °C 7.8 °C 1005.6 hPa SW 27.8 km/h 16.7 km/h 40 % 0 mm
18:35 24.5 °C 10.4 °C 1004.3 hPa SSW 16.1 km/h 27.4 km/h 41 % 0 mm
18:39 22 °C 8.5 °C 1005.6 hPa SSW 31.5 km/h 21.6 km/h 42 % 0 mm
18:40 24.4 °C 10.3 °C 1004.3 hPa SSW 11.3 km/h 29 km/h 41 % 0 mm
18:44 21.6 °C 8.8 °C 1005.6 hPa SW 35.2 km/h 19.6 km/h 44 % 0 mm
18:45 24.4 °C 9.9 °C 1004.3 hPa SSW 19.3 km/h 32.2 km/h 40 % 0 mm
18:49 21.5 °C 8.7 °C 1005.6 hPa SW 29.6 km/h 18.2 km/h 44 % 0 mm
18:50 24.4 °C 10.3 °C 1004.3 hPa SSW 19.3 km/h 27.4 km/h 41 % 0 mm
18:54 21.3 °C 8.9 °C 1005.6 hPa SW 27.4 km/h 16.3 km/h 45 % 0 mm
18:55 24.3 °C 9.9 °C 1004.3 hPa SSW 14.5 km/h 32.2 km/h 40 % 0 mm
18:59 21.1 °C 9 °C 1005.6 hPa South 27.8 km/h 14.5 km/h 46 % 0 mm
19:00 24.6 °C 10.8 °C 1004.3 hPa South 12.9 km/h 22.5 km/h 42 % 0 mm
19:04 20.8 °C 9.1 °C 1006 hPa SW 25.7 km/h 15.6 km/h 47 % 0 mm
19:05 24.3 °C 10.2 °C 1004.3 hPa South 14.5 km/h 38.6 km/h 41 % 0 mm
19:09 20.5 °C 9.1 °C 1006 hPa SSW 31.5 km/h 19.3 km/h 48 % 0 mm
19:10 24.1 °C 10.4 °C 1004.6 hPa SSW 14.5 km/h 27.4 km/h 42 % 0 mm
19:14 20.3 °C 9.2 °C 1006 hPa SSW 24.1 km/h 16.6 km/h 49 % 0 mm
19:15 23.8 °C 9.7 °C 1004.3 hPa SSW 24.1 km/h 32.2 km/h 41 % 0 mm
19:19 20.1 °C 8.8 °C 1006.3 hPa SSW 37 km/h 19.6 km/h 48 % 0 mm
19:20 23.7 °C 10.1 °C 1004.6 hPa SSW 22.5 km/h 30.6 km/h 42 % 0 mm
19:24 19.9 °C 8.9 °C 1006.3 hPa SSW 38.6 km/h 26.2 km/h 49 % 0 mm
19:25 23.7 °C 10.1 °C 1004.6 hPa SSW 19.3 km/h 30.6 km/h 42 % 0 mm
19:29 19.6 °C 8.6 °C 1006.3 hPa SSW 27.8 km/h 18.7 km/h 49 % 0 mm
19:30 23.5 °C 9.8 °C 1004.6 hPa SSW 16.1 km/h 32.2 km/h 42 % 0 mm
19:34 19.4 °C 8.4 °C 1006.7 hPa SSW 29.6 km/h 17.4 km/h 49 % 0 mm
19:35 23.3 °C 9.7 °C 1004.6 hPa SW 20.9 km/h 32.2 km/h 42 % 0 mm
19:39 19.2 °C 8.6 °C 1006.7 hPa SSW 31.5 km/h 15.9 km/h 50 % 0 mm
19:40 23.4 °C 9.4 °C 1004.6 hPa SW 19.3 km/h 30.6 km/h 41 % 0 mm
19:44 19.1 °C 8.4 °C 1006.7 hPa South 29.6 km/h 15.4 km/h 50 % 0 mm
19:45 23.5 °C 9.1 °C 1005 hPa SSW 32.2 km/h 38.6 km/h 40 % 0 mm
19:49 18.9 °C 8.2 °C 1006.7 hPa South 33.3 km/h 17.9 km/h 50 % 0 mm
19:50 23.1 °C 9.1 °C 1005 hPa SSW 19.3 km/h 41.8 km/h 41 % 0 mm
19:54 18.7 °C 8.4 °C 1007 hPa SW 31.5 km/h 19.5 km/h 51 % 0 mm
19:55 22.9 °C 8.6 °C 1005 hPa South 19.3 km/h 32.2 km/h 40 % 0 mm
19:59 18.6 °C 8.5 °C 1007 hPa SSW 27.8 km/h 17.2 km/h 52 % 0 mm
20:00 22.8 °C 8.9 °C 1005 hPa South 22.5 km/h 33.8 km/h 41 % 0 mm
20:04 18.2 °C 8.2 °C 1007 hPa SSW 31.5 km/h 16.6 km/h 52 % 0 mm
20:05 22.8 °C 8.8 °C 1005 hPa South 11.3 km/h 29 km/h 41 % 0 mm
20:09 18 °C 9.1 °C 1007.3 hPa South 18.5 km/h 19.5 km/h 56 % 0 mm
20:10 22.8 °C 8.4 °C 1005 hPa SSW 22.5 km/h 29 km/h 40 % 0 mm
20:14 17.4 °C 9.3 °C 1007.3 hPa South 19.3 km/h 20.6 km/h 59 % 0 mm
20:15 22.6 °C 8.7 °C 1005 hPa SW 19.3 km/h 30.6 km/h 41 % 0 mm
20:19 17 °C 9.7 °C 1007.3 hPa SSE 31.5 km/h 19 km/h 62 % 0 mm
20:20 22.5 °C 8.6 °C 1005.3 hPa SSW 16.1 km/h 38.6 km/h 41 % 0 mm
20:24 16.7 °C 9.7 °C 1007.3 hPa South 18.5 km/h 9.3 km/h 63 % 0 mm
20:25 22.2 °C 8.3 °C 1005.3 hPa SSW 16.1 km/h 30.6 km/h 41 % 0 mm
20:29 16.6 °C 9.5 °C 1007.7 hPa SSE 18.5 km/h 8.5 km/h 63 % 0 mm
20:30 22.2 °C 8.3 °C 1005.3 hPa SSW 16.1 km/h 30.6 km/h 41 % 0 mm
20:34 16.4 °C 9.4 °C 1007.7 hPa SSW 20.4 km/h 13.8 km/h 63 % 0 mm
20:35 22.1 °C 8.2 °C 1005.6 hPa SSW 20.9 km/h 29 km/h 41 % 0 mm
20:39 16.4 °C 9.3 °C 1007.7 hPa SSW 24.1 km/h 13.2 km/h 63 % 0 mm
20:40 22.1 °C 7.8 °C 1005.6 hPa SSW 19.3 km/h 29 km/h 40 % 0 mm
20:44 16.2 °C 9.4 °C 1007.7 hPa South 22.2 km/h 11.1 km/h 64 % 0 mm
20:45 21.9 °C 8.4 °C 1005.6 hPa SSW 22.5 km/h 35.4 km/h 42 % 0 mm
20:49 16.1 °C 9.2 °C 1008 hPa South 18.5 km/h 10.9 km/h 64 % 0 mm
20:50 21.6 °C 8.8 °C 1005.6 hPa SSW 24.1 km/h 35.4 km/h 44 % 0 mm
20:54 15.9 °C 9.1 °C 1008 hPa South 24.1 km/h 17.9 km/h 64 % 0 mm
20:55 21.4 °C 9 °C 1005.6 hPa SSW 19.3 km/h 33.8 km/h 45 % 0 mm
20:59 15.6 °C 9.1 °C 1008 hPa SSW 19.3 km/h 15.3 km/h 65 % 0 mm
21:00 21.3 °C 8.8 °C 1005.6 hPa SSW 19.3 km/h 32.2 km/h 45 % 0 mm
21:04 15.4 °C 8.8 °C 1008 hPa SSW 27.8 km/h 16.1 km/h 65 % 0 mm
21:05 21 °C 8.9 °C 1006 hPa SSW 20.9 km/h 32.2 km/h 46 % 0 mm
21:09 15.2 °C 8.8 °C 1008.4 hPa South 20.4 km/h 8.7 km/h 66 % 0 mm
21:10 20.8 °C 9.1 °C 1006 hPa SSW 25.7 km/h 38.6 km/h 47 % 0 mm
21:14 14.9 °C 8.7 °C 1008.4 hPa South 24.1 km/h 15.6 km/h 66 % 0 mm
21:15 20.4 °C 9 °C 1006 hPa SSW 27.4 km/h 37 km/h 48 % 0 mm
21:19 14.8 °C 8.5 °C 1008.4 hPa South 18.5 km/h 9.7 km/h 66 % 0 mm
21:20 20.3 °C 9.2 °C 1006 hPa SSW 16.1 km/h 29 km/h 49 % 0 mm
21:24 14.7 °C 8.4 °C 1008.7 hPa South 20.4 km/h 7.1 km/h 66 % 0 mm
21:25 20.1 °C 8.8 °C 1006.3 hPa South 22.5 km/h 37 km/h 48 % 0 mm
21:29 14.6 °C 8.3 °C 1008.7 hPa South 14.8 km/h 8.5 km/h 66 % 0 mm
21:30 19.8 °C 8.8 °C 1006.3 hPa SSW 24.1 km/h 43.5 km/h 49 % 0 mm
21:34 14.4 °C 8.4 °C 1008.7 hPa South 18.5 km/h 12.2 km/h 67 % 0 mm
21:35 19.6 °C 8.6 °C 1006.3 hPa SSW 20.9 km/h 43.5 km/h 49 % 0 mm
21:39 14.3 °C 8.3 °C 1008.7 hPa South 11.3 km/h 8.2 km/h 67 % 0 mm
21:40 19.4 °C 8.4 °C 1006.7 hPa SSW 24.1 km/h 35.4 km/h 49 % 0 mm
21:44 14.2 °C 8.2 °C 1008.7 hPa South 9.3 km/h 5 km/h 67 % 0 mm
21:45 19.2 °C 8.5 °C 1006.7 hPa SSW 14.5 km/h 32.2 km/h 50 % 0 mm
21:49 14.1 °C 8.1 °C 1009 hPa South 14.8 km/h 6.9 km/h 67 % 0 mm
21:50 19 °C 8.3 °C 1006.7 hPa SSW 16.1 km/h 43.5 km/h 50 % 0 mm
21:54 14.1 °C 8.2 °C 1009 hPa South 13 km/h 8.2 km/h 68 % 0 mm
21:55 18.8 °C 8.5 °C 1006.7 hPa SSW 14.5 km/h 37 km/h 51 % 0 mm
21:59 13.9 °C 8.1 °C 1009 hPa South 5.6 km/h 2.6 km/h 68 % 0 mm
22:00 18.7 °C 8.3 °C 1007 hPa SSW 19.3 km/h 32.2 km/h 51 % 0 mm
22:04 13.8 °C 8 °C 1009 hPa South 5.6 km/h 3.5 km/h 68 % 0 mm
22:05 18.4 °C 8.4 °C 1007 hPa SSW 20.9 km/h 33.8 km/h 52 % 0 mm
22:09 13.7 °C 7.9 °C 1009 hPa South 7.4 km/h 5.5 km/h 68 % 0 mm
22:10 18.2 °C 8.4 °C 1007 hPa SSW 19.3 km/h 32.2 km/h 53 % 0 mm
22:14 13.6 °C 8 °C 1009.4 hPa South 3.7 km/h 3.1 km/h 69 % 0 mm
22:15 17.8 °C 9.2 °C 1007.3 hPa South 16.1 km/h 30.6 km/h 57 % 0 mm
22:19 13.4 °C 7.9 °C 1009.4 hPa South 7.4 km/h 3.7 km/h 69 % 0 mm
22:20 17.3 °C 9.4 °C 1007.3 hPa South 19.3 km/h 29 km/h 60 % 0 mm
22:24 13.3 °C 8 °C 1009.4 hPa South 5.6 km/h 3.4 km/h 70 % 0 mm
22:25 16.9 °C 9.8 °C 1007.3 hPa South 11.3 km/h 32.2 km/h 63 % 0 mm
22:29 13.2 °C 7.9 °C 1009.4 hPa South 5.6 km/h 2.7 km/h 70 % 0 mm
22:30 16.7 °C 9.6 °C 1007.7 hPa South 12.9 km/h 20.9 km/h 63 % 0 mm
22:34 13.1 °C 7.7 °C 1009.4 hPa South 5.6 km/h 4 km/h 70 % 0 mm
22:35 16.5 °C 9.4 °C 1007.7 hPa South 12.9 km/h 19.3 km/h 63 % 0 mm
22:39 12.9 °C 7.8 °C 1009.4 hPa South 5.6 km/h 1.8 km/h 71 % 0 mm
22:40 16.4 °C 9.3 °C 1007.7 hPa South 11.3 km/h 24.1 km/h 63 % 0 mm
22:44 12.8 °C 7.7 °C 1009.4 hPa South 3.7 km/h 0.3 km/h 71 % 0 mm
22:45 16.3 °C 9.3 °C 1007.7 hPa SSW 14.5 km/h 25.7 km/h 63 % 0 mm
22:49 12.7 °C 7.6 °C 1009.4 hPa South 5.6 km/h 3.7 km/h 71 % 0 mm
22:50 16.2 °C 9.3 °C 1008 hPa SSW 8 km/h 24.1 km/h 64 % 0 mm
22:54 12.6 °C 7.7 °C 1009.4 hPa South 5.6 km/h 0.3 km/h 72 % 0 mm
22:55 16 °C 9.2 °C 1008 hPa South 16.1 km/h 20.9 km/h 64 % 0 mm
22:59 12.5 °C 7.6 °C 1009.4 hPa South 5.6 km/h 2.7 km/h 72 % 0 mm
23:00 15.8 °C 9 °C 1008 hPa South 16.1 km/h 29 km/h 64 % 0 mm
23:04 12.4 °C 7.5 °C 1009.4 hPa South 5.6 km/h 1.4 km/h 72 % 0 mm
23:05 15.6 °C 9 °C 1008 hPa South 14.5 km/h 27.4 km/h 65 % 0 mm
23:09 12.2 °C 7.3 °C 1009.4 hPa South 3.2 km/h 1.1 km/h 72 % 0 mm
23:10 15.3 °C 9 °C 1008 hPa South 19.3 km/h 27.4 km/h 66 % 0 mm
23:14 12.1 °C 7.2 °C 1009.4 hPa South 3.7 km/h 1 km/h 72 % 0 mm
23:15 15.1 °C 8.8 °C 1008 hPa South 12.9 km/h 22.5 km/h 66 % 0 mm
23:19 11.9 °C 7.3 °C 1009.4 hPa South 3.2 km/h 1.3 km/h 73 % 0 mm
23:20 14.9 °C 8.6 °C 1008.4 hPa South 19.3 km/h 27.4 km/h 66 % 0 mm
23:24 11.8 °C 7.1 °C 1009.4 hPa South 5.6 km/h 2.7 km/h 73 % 0 mm
23:25 14.8 °C 8.5 °C 1008.4 hPa South 4.8 km/h 24.1 km/h 66 % 0 mm
23:29 11.7 °C 7.2 °C 1009.4 hPa South 5.6 km/h 3.5 km/h 74 % 0 mm
23:30 14.7 °C 8.4 °C 1008.7 hPa South 12.9 km/h 24.1 km/h 66 % 0 mm
23:34 11.6 °C 7.1 °C 1009.4 hPa South 3.7 km/h 2.1 km/h 74 % 0 mm
23:35 14.6 °C 8.3 °C 1008.7 hPa South 9.7 km/h 19.3 km/h 66 % 0 mm
23:39 11.6 °C 7.1 °C 1009.4 hPa South 5.6 km/h 2.4 km/h 74 % 0 mm
23:40 14.4 °C 8.4 °C 1008.7 hPa South 12.9 km/h 19.3 km/h 67 % 0 mm
23:44 11.6 °C 7.1 °C 1009.4 hPa South 1.9 km/h 1.6 km/h 74 % 0 mm
23:45 14.3 °C 8.2 °C 1008.7 hPa South 8 km/h 16.1 km/h 67 % 0 mm
23:49 11.4 °C 7.2 °C 1009.4 hPa South 6.4 km/h 3.1 km/h 75 % 0 mm
23:50 14.2 °C 8.2 °C 1009 hPa South 8 km/h 12.9 km/h 67 % 0 mm
23:54 11.4 °C 7.2 °C 1009.7 hPa South 5.6 km/h 5.6 km/h 75 % 0 mm
23:55 14.1 °C 8.1 °C 1009 hPa South 9.7 km/h 17.7 km/h 67 % 0 mm
23:59 11.5 °C 7.2 °C 1009.7 hPa South 9.3 km/h 7.2 km/h 75 % 0 mm
Ararat Weather
Compliments of Weather Underground - 3.5 mb
Click here to send mail.


ABOUT

Live weather data from Ararat, Victoria, Australia, 3377
Data uploaded from Cumulus every 5 minutes to Weather Underground.
This site then downloads the raw data for formatting and display.
Metric and imperial data can be displayed. Graphs and historical data available.
Includes Sun and Moon times and rain image live from BOM.

Check out Ararat Weather on Facebook, Twitter and Google +

Help support ongoing costs by checking out the ads





Follow @AraratWeather